sensor_id;sensor_type;location;lat;lon;timestamp;temperature;humidity
34201;DHT22;20469;55.638;37.670;2023-06-14T00:01:37;13.70;1.00
34201;DHT22;20469;55.638;37.670;2023-06-14T00:04:05;13.90;1.00
34201;DHT22;20469;55.638;37.670;2023-06-14T00:06:35;14.00;1.00
34201;DHT22;20469;55.638;37.670;2023-06-14T00:09:02;14.00;1.00
34201;DHT22;20469;55.638;37.670;2023-06-14T00:11:32;14.00;1.00
34201;DHT22;20469;55.638;37.670;2023-06-14T00:14:00;14.00;1.00
34201;DHT22;20469;55.638;37.670;2023-06-14T00:16:27;13.90;1.00
34201;DHT22;20469;55.638;37.670;2023-06-14T00:18:54;13.70;1.00
34201;DHT22;20469;55.638;37.670;2023-06-14T00:21:22;13.60;1.00
34201;DHT22;20469;55.638;37.670;2023-06-14T00:23:49;13.80;1.00
34201;DHT22;20469;55.638;37.670;2023-06-14T00:26:18;13.80;1.00
34201;DHT22;20469;55.638;37.670;2023-06-14T00:28:45;13.70;1.00
34201;DHT22;20469;55.638;37.670;2023-06-14T00:31:12;13.60;1.00
34201;DHT22;20469;55.638;37.670;2023-06-14T00:33:39;13.60;1.00
34201;DHT22;20469;55.638;37.670;2023-06-14T00:36:07;13.50;1.00
34201;DHT22;20469;55.638;37.670;2023-06-14T00:38:34;13.50;1.00
34201;DHT22;20469;55.638;37.670;2023-06-14T00:41:02;13.40;1.00
34201;DHT22;20469;55.638;37.670;2023-06-14T00:43:29;13.50;1.00
34201;DHT22;20469;55.638;37.670;2023-06-14T00:45:56;13.40;1.00
34201;DHT22;20469;55.638;37.670;2023-06-14T00:48:24;13.40;1.00
34201;DHT22;20469;55.638;37.670;2023-06-14T00:50:52;13.50;1.00
34201;DHT22;20469;55.638;37.670;2023-06-14T00:53:20;13.50;1.00
34201;DHT22;20469;55.638;37.670;2023-06-14T00:55:50;13.40;1.00
34201;DHT22;20469;55.638;37.670;2023-06-14T00:58:17;13.40;1.00
34201;DHT22;20469;55.638;37.670;2023-06-14T01:00:45;13.30;1.00
34201;DHT22;20469;55.638;37.670;2023-06-14T01:03:12;13.40;1.00
34201;DHT22;20469;55.638;37.670;2023-06-14T01:05:41;13.60;1.00
34201;DHT22;20469;55.638;37.670;2023-06-14T01:08:23;13.40;1.00
34201;DHT22;20469;55.638;37.670;2023-06-14T01:10:59;13.40;1.00
34201;DHT22;20469;55.638;37.670;2023-06-14T01:13:33;13.50;1.00
34201;DHT22;20469;55.638;37.670;2023-06-14T01:16:02;13.50;1.00
34201;DHT22;20469;55.638;37.670;2023-06-14T01:18:31;13.50;1.00
34201;DHT22;20469;55.638;37.670;2023-06-14T01:20:59;13.60;1.00
34201;DHT22;20469;55.638;37.670;2023-06-14T01:23:26;13.60;1.00
34201;DHT22;20469;55.638;37.670;2023-06-14T01:26:00;13.50;1.00
34201;DHT22;20469;55.638;37.670;2023-06-14T01:28:31;13.50;1.00
34201;DHT22;20469;55.638;37.670;2023-06-14T01:31:02;13.30;1.00
34201;DHT22;20469;55.638;37.670;2023-06-14T01:33:33;13.40;1.00
34201;DHT22;20469;55.638;37.670;2023-06-14T01:36:01;13.60;1.00
34201;DHT22;20469;55.638;37.670;2023-06-14T01:38:30;13.50;1.00
34201;DHT22;20469;55.638;37.670;2023-06-14T01:40:58;13.60;1.00
34201;DHT22;20469;55.638;37.670;2023-06-14T01:43:27;13.50;1.00
34201;DHT22;20469;55.638;37.670;2023-06-14T01:45:57;13.60;1.00
34201;DHT22;20469;55.638;37.670;2023-06-14T01:48:26;13.50;1.00
34201;DHT22;20469;55.638;37.670;2023-06-14T01:50:54;13.60;1.00
34201;DHT22;20469;55.638;37.670;2023-06-14T01:53:21;13.90;1.00
34201;DHT22;20469;55.638;37.670;2023-06-14T01:55:49;13.80;1.00
34201;DHT22;20469;55.638;37.670;2023-06-14T01:58:16;13.80;1.00
34201;DHT22;20469;55.638;37.670;2023-06-14T02:00:43;13.70;1.00
34201;DHT22;20469;55.638;37.670;2023-06-14T02:03:12;13.80;1.00
34201;DHT22;20469;55.638;37.670;2023-06-14T02:05:40;13.80;1.00
34201;DHT22;20469;55.638;37.670;2023-06-14T02:08:07;13.90;1.00
34201;DHT22;20469;55.638;37.670;2023-06-14T02:10:35;13.90;1.00
34201;DHT22;20469;55.638;37.670;2023-06-14T02:13:03;14.20;1.00
34201;DHT22;20469;55.638;37.670;2023-06-14T02:15:30;14.20;1.00
34201;DHT22;20469;55.638;37.670;2023-06-14T02:18:02;14.20;1.00
34201;DHT22;20469;55.638;37.670;2023-06-14T02:20:30;14.20;1.00
34201;DHT22;20469;55.638;37.670;2023-06-14T02:22:57;14.20;1.00
34201;DHT22;20469;55.638;37.670;2023-06-14T02:25:25;14.30;1.00
34201;DHT22;20469;55.638;37.670;2023-06-14T02:27:55;14.40;1.00
34201;DHT22;20469;55.638;37.670;2023-06-14T02:30:22;14.50;1.00
34201;DHT22;20469;55.638;37.670;2023-06-14T02:32:50;14.60;1.00
34201;DHT22;20469;55.638;37.670;2023-06-14T02:35:18;14.80;1.00
34201;DHT22;20469;55.638;37.670;2023-06-14T02:37:47;14.90;1.00
34201;DHT22;20469;55.638;37.670;2023-06-14T02:40:14;14.90;1.00
34201;DHT22;20469;55.638;37.670;2023-06-14T02:42:42;15.00;1.00
34201;DHT22;20469;55.638;37.670;2023-06-14T02:45:09;15.30;1.00
34201;DHT22;20469;55.638;37.670;2023-06-14T02:47:36;15.30;1.00
34201;DHT22;20469;55.638;37.670;2023-06-14T02:50:04;15.30;1.00
34201;DHT22;20469;55.638;37.670;2023-06-14T02:52:33;15.40;1.00
34201;DHT22;20469;55.638;37.670;2023-06-14T02:55:00;15.40;1.00
34201;DHT22;20469;55.638;37.670;2023-06-14T02:57:29;15.50;1.00
34201;DHT22;20469;55.638;37.670;2023-06-14T03:00:15;15.70;1.00
34201;DHT22;20469;55.638;37.670;2023-06-14T03:02:44;15.70;1.00
34201;DHT22;20469;55.638;37.670;2023-06-14T03:05:12;15.70;1.00
34201;DHT22;20469;55.638;37.670;2023-06-14T03:07:41;15.70;1.00
34201;DHT22;20469;55.638;37.670;2023-06-14T03:10:12;15.90;1.00
34201;DHT22;20469;55.638;37.670;2023-06-14T03:12:40;16.10;1.00
34201;DHT22;20469;55.638;37.670;2023-06-14T03:15:09;16.30;1.00
34201;DHT22;20469;55.638;37.670;2023-06-14T03:17:36;16.50;1.00
34201;DHT22;20469;55.638;37.670;2023-06-14T03:20:06;16.60;1.00
34201;DHT22;20469;55.638;37.670;2023-06-14T03:22:35;16.40;1.00
34201;DHT22;20469;55.638;37.670;2023-06-14T03:25:04;16.30;1.00
34201;DHT22;20469;55.638;37.670;2023-06-14T03:27:32;16.60;1.00
34201;DHT22;20469;55.638;37.670;2023-06-14T03:30:00;16.70;1.00
34201;DHT22;20469;55.638;37.670;2023-06-14T03:32:30;16.70;1.00
34201;DHT22;20469;55.638;37.670;2023-06-14T03:35:00;17.00;1.00
34201;DHT22;20469;55.638;37.670;2023-06-14T03:37:29;17.00;1.00
34201;DHT22;20469;55.638;37.670;2023-06-14T03:39:58;17.00;1.00
34201;DHT22;20469;55.638;37.670;2023-06-14T03:42:25;17.40;1.00
34201;DHT22;20469;55.638;37.670;2023-06-14T03:44:52;17.40;1.00
34201;DHT22;20469;55.638;37.670;2023-06-14T03:47:19;17.10;1.00
34201;DHT22;20469;55.638;37.670;2023-06-14T03:49:47;17.30;1.00
34201;DHT22;20469;55.638;37.670;2023-06-14T03:52:14;17.40;1.00
34201;DHT22;20469;55.638;37.670;2023-06-14T03:54:43;17.50;1.00
34201;DHT22;20469;55.638;37.670;2023-06-14T03:57:15;17.80;1.00
34201;DHT22;20469;55.638;37.670;2023-06-14T03:59:42;17.90;1.00
34201;DHT22;20469;55.638;37.670;2023-06-14T04:02:09;17.70;1.00
34201;DHT22;20469;55.638;37.670;2023-06-14T04:04:37;17.70;1.00
34201;DHT22;20469;55.638;37.670;2023-06-14T04:07:04;17.90;1.00
34201;DHT22;20469;55.638;37.670;2023-06-14T04:09:32;17.90;1.00
34201;DHT22;20469;55.638;37.670;2023-06-14T04:12:00;18.00;1.00
34201;DHT22;20469;55.638;37.670;2023-06-14T04:14:27;18.00;1.00
34201;DHT22;20469;55.638;37.670;2023-06-14T04:16:54;17.70;1.00
34201;DHT22;20469;55.638;37.670;2023-06-14T04:19:22;18.00;1.00
34201;DHT22;20469;55.638;37.670;2023-06-14T04:21:49;18.30;1.00
34201;DHT22;20469;55.638;37.670;2023-06-14T04:24:17;18.30;1.00
34201;DHT22;20469;55.638;37.670;2023-06-14T04:26:45;18.60;1.00
34201;DHT22;20469;55.638;37.670;2023-06-14T04:29:14;18.30;1.00
34201;DHT22;20469;55.638;37.670;2023-06-14T04:31:43;18.50;1.00
34201;DHT22;20469;55.638;37.670;2023-06-14T04:34:12;18.50;1.00
34201;DHT22;20469;55.638;37.670;2023-06-14T04:36:45;18.60;1.00
34201;DHT22;20469;55.638;37.670;2023-06-14T04:39:16;18.80;1.00
34201;DHT22;20469;55.638;37.670;2023-06-14T04:41:47;18.80;1.00
34201;DHT22;20469;55.638;37.670;2023-06-14T04:44:14;18.90;1.00
34201;DHT22;20469;55.638;37.670;2023-06-14T04:46:44;18.90;1.00
34201;DHT22;20469;55.638;37.670;2023-06-14T04:49:15;18.70;1.00
34201;DHT22;20469;55.638;37.670;2023-06-14T04:51:45;18.80;1.00
34201;DHT22;20469;55.638;37.670;2023-06-14T04:54:13;18.90;1.00
34201;DHT22;20469;55.638;37.670;2023-06-14T04:56:41;18.90;1.00
34201;DHT22;20469;55.638;37.670;2023-06-14T04:59:13;19.20;1.00
34201;DHT22;20469;55.638;37.670;2023-06-14T05:01:41;19.30;1.00
34201;DHT22;20469;55.638;37.670;2023-06-14T05:04:09;19.20;1.00
34201;DHT22;20469;55.638;37.670;2023-06-14T05:06:36;19.20;1.00
34201;DHT22;20469;55.638;37.670;2023-06-14T05:09:05;19.30;1.00
34201;DHT22;20469;55.638;37.670;2023-06-14T05:14:18;19.50;1.00
34201;DHT22;20469;55.638;37.670;2023-06-14T05:16:46;19.80;1.00
34201;DHT22;20469;55.638;37.670;2023-06-14T05:19:15;19.80;1.00
34201;DHT22;20469;55.638;37.670;2023-06-14T05:21:44;19.70;1.00
34201;DHT22;20469;55.638;37.670;2023-06-14T05:24:12;19.70;1.00
34201;DHT22;20469;55.638;37.670;2023-06-14T05:26:39;19.80;1.00
34201;DHT22;20469;55.638;37.670;2023-06-14T05:31:56;20.30;1.00
34201;DHT22;20469;55.638;37.670;2023-06-14T05:34:24;20.40;1.00
34201;DHT22;20469;55.638;37.670;2023-06-14T05:36:51;20.40;1.00
34201;DHT22;20469;55.638;37.670;2023-06-14T05:39:18;20.40;1.00
34201;DHT22;20469;55.638;37.670;2023-06-14T05:41:45;20.50;1.00
34201;DHT22;20469;55.638;37.670;2023-06-14T05:44:15;20.60;1.00
34201;DHT22;20469;55.638;37.670;2023-06-14T05:46:43;20.30;1.00
34201;DHT22;20469;55.638;37.670;2023-06-14T05:49:29;20.60;1.00
34201;DHT22;20469;55.638;37.670;2023-06-14T05:51:57;20.70;1.00
34201;DHT22;20469;55.638;37.670;2023-06-14T05:54:24;20.70;1.00
34201;DHT22;20469;55.638;37.670;2023-06-14T05:56:51;21.00;1.00
34201;DHT22;20469;55.638;37.670;2023-06-14T05:59:19;21.30;1.00
34201;DHT22;20469;55.638;37.670;2023-06-14T06:01:46;21.50;1.00
34201;DHT22;20469;55.638;37.670;2023-06-14T06:04:13;21.30;1.00
34201;DHT22;20469;55.638;37.670;2023-06-14T06:06:40;21.40;1.00
34201;DHT22;20469;55.638;37.670;2023-06-14T06:09:08;21.50;1.00
34201;DHT22;20469;55.638;37.670;2023-06-14T06:11:35;21.00;1.00
34201;DHT22;20469;55.638;37.670;2023-06-14T06:14:18;21.60;1.00
34201;DHT22;20469;55.638;37.670;2023-06-14T06:16:45;21.60;1.00
34201;DHT22;20469;55.638;37.670;2023-06-14T06:19:13;21.20;1.00
34201;DHT22;20469;55.638;37.670;2023-06-14T06:21:41;20.80;1.00
34201;DHT22;20469;55.638;37.670;2023-06-14T06:24:08;21.40;1.00
34201;DHT22;20469;55.638;37.670;2023-06-14T06:26:35;21.60;1.00
34201;DHT22;20469;55.638;37.670;2023-06-14T06:29:03;21.40;1.00
34201;DHT22;20469;55.638;37.670;2023-06-14T06:31:30;21.30;1.00
34201;DHT22;20469;55.638;37.670;2023-06-14T06:33:58;21.30;1.00
34201;DHT22;20469;55.638;37.670;2023-06-14T06:36:25;22.00;1.00
34201;DHT22;20469;55.638;37.670;2023-06-14T06:38:53;21.60;1.00
34201;DHT22;20469;55.638;37.670;2023-06-14T06:41:20;21.50;1.00
34201;DHT22;20469;55.638;37.670;2023-06-14T06:43:47;21.50;1.00
34201;DHT22;20469;55.638;37.670;2023-06-14T06:46:15;21.70;1.00
34201;DHT22;20469;55.638;37.670;2023-06-14T06:48:42;21.80;1.00
34201;DHT22;20469;55.638;37.670;2023-06-14T06:51:09;21.60;1.00
34201;DHT22;20469;55.638;37.670;2023-06-14T06:53:37;21.40;1.00
34201;DHT22;20469;55.638;37.670;2023-06-14T06:56:12;21.40;1.00
34201;DHT22;20469;55.638;37.670;2023-06-14T06:58:39;21.90;1.00
34201;DHT22;20469;55.638;37.670;2023-06-14T07:01:07;21.50;1.00
34201;DHT22;20469;55.638;37.670;2023-06-14T07:03:36;21.90;1.00
34201;DHT22;20469;55.638;37.670;2023-06-14T07:06:22;22.10;1.00
34201;DHT22;20469;55.638;37.670;2023-06-14T07:08:50;22.20;1.00
34201;DHT22;20469;55.638;37.670;2023-06-14T07:11:17;21.70;1.00
34201;DHT22;20469;55.638;37.670;2023-06-14T07:13:44;21.80;1.00
34201;DHT22;20469;55.638;37.670;2023-06-14T07:16:12;22.10;1.00
34201;DHT22;20469;55.638;37.670;2023-06-14T07:18:39;22.20;1.00
34201;DHT22;20469;55.638;37.670;2023-06-14T07:21:07;22.80;1.00
34201;DHT22;20469;55.638;37.670;2023-06-14T07:23:34;22.50;1.00
34201;DHT22;20469;55.638;37.670;2023-06-14T07:26:02;22.30;1.00
34201;DHT22;20469;55.638;37.670;2023-06-14T07:28:30;22.30;1.00
34201;DHT22;20469;55.638;37.670;2023-06-14T07:30:57;22.10;1.00
34201;DHT22;20469;55.638;37.670;2023-06-14T07:33:24;22.00;1.00
34201;DHT22;20469;55.638;37.670;2023-06-14T07:35:52;22.00;1.00
34201;DHT22;20469;55.638;37.670;2023-06-14T07:38:20;22.00;1.00
34201;DHT22;20469;55.638;37.670;2023-06-14T07:40:47;22.10;1.00
34201;DHT22;20469;55.638;37.670;2023-06-14T07:43:15;22.20;1.00
34201;DHT22;20469;55.638;37.670;2023-06-14T07:45:42;22.30;1.00
34201;DHT22;20469;55.638;37.670;2023-06-14T07:48:28;22.00;1.00
34201;DHT22;20469;55.638;37.670;2023-06-14T07:50:56;22.30;1.00
34201;DHT22;20469;55.638;37.670;2023-06-14T07:53:23;22.40;1.00
34201;DHT22;20469;55.638;37.670;2023-06-14T07:55:50;22.50;1.00
34201;DHT22;20469;55.638;37.670;2023-06-14T07:58:20;22.60;1.00
34201;DHT22;20469;55.638;37.670;2023-06-14T08:00:47;22.80;1.00
34201;DHT22;20469;55.638;37.670;2023-06-14T08:03:14;22.40;1.00
34201;DHT22;20469;55.638;37.670;2023-06-14T08:05:42;22.40;1.00
34201;DHT22;20469;55.638;37.670;2023-06-14T08:08:10;22.50;1.00
34201;DHT22;20469;55.638;37.670;2023-06-14T08:10:37;22.80;1.00
34201;DHT22;20469;55.638;37.670;2023-06-14T08:13:04;22.80;1.00
34201;DHT22;20469;55.638;37.670;2023-06-14T08:15:32;22.90;1.00
34201;DHT22;20469;55.638;37.670;2023-06-14T08:17:59;22.70;1.00
34201;DHT22;20469;55.638;37.670;2023-06-14T08:20:28;23.00;1.00
34201;DHT22;20469;55.638;37.670;2023-06-14T08:22:57;24.00;1.00
34201;DHT22;20469;55.638;37.670;2023-06-14T08:25:25;23.50;1.00
34201;DHT22;20469;55.638;37.670;2023-06-14T08:27:53;24.00;1.00
34201;DHT22;20469;55.638;37.670;2023-06-14T08:30:20;23.40;1.00
34201;DHT22;20469;55.638;37.670;2023-06-14T08:32:48;23.50;1.00
34201;DHT22;20469;55.638;37.670;2023-06-14T08:35:24;22.90;1.00
34201;DHT22;20469;55.638;37.670;2023-06-14T08:37:52;23.50;1.00
34201;DHT22;20469;55.638;37.670;2023-06-14T08:40:22;24.00;1.00
34201;DHT22;20469;55.638;37.670;2023-06-14T08:42:54;24.10;1.00
34201;DHT22;20469;55.638;37.670;2023-06-14T08:45:23;25.00;1.00
34201;DHT22;20469;55.638;37.670;2023-06-14T08:47:54;25.20;1.00
34201;DHT22;20469;55.638;37.670;2023-06-14T08:50:27;23.70;1.00
34201;DHT22;20469;55.638;37.670;2023-06-14T08:53:00;24.00;1.00
34201;DHT22;20469;55.638;37.670;2023-06-14T08:55:32;24.90;1.00
34201;DHT22;20469;55.638;37.670;2023-06-14T08:58:09;24.20;1.00
34201;DHT22;20469;55.638;37.670;2023-06-14T09:00:42;23.80;1.00
34201;DHT22;20469;55.638;37.670;2023-06-14T09:03:10;24.70;1.00
34201;DHT22;20469;55.638;37.670;2023-06-14T09:05:41;25.20;1.00
34201;DHT22;20469;55.638;37.670;2023-06-14T09:08:08;25.10;1.00
34201;DHT22;20469;55.638;37.670;2023-06-14T09:10:37;24.00;1.00
34201;DHT22;20469;55.638;37.670;2023-06-14T09:13:06;24.50;1.00
34201;DHT22;20469;55.638;37.670;2023-06-14T09:15:35;24.60;1.00
34201;DHT22;20469;55.638;37.670;2023-06-14T09:18:03;24.60;1.00
34201;DHT22;20469;55.638;37.670;2023-06-14T09:20:31;24.30;1.00
34201;DHT22;20469;55.638;37.670;2023-06-14T09:22:59;24.80;1.00
34201;DHT22;20469;55.638;37.670;2023-06-14T09:25:27;25.30;1.00
34201;DHT22;20469;55.638;37.670;2023-06-14T09:28:07;25.10;1.00
34201;DHT22;20469;55.638;37.670;2023-06-14T09:30:38;24.40;1.00
34201;DHT22;20469;55.638;37.670;2023-06-14T09:33:06;25.20;1.00
34201;DHT22;20469;55.638;37.670;2023-06-14T09:35:34;24.20;1.00
34201;DHT22;20469;55.638;37.670;2023-06-14T09:38:01;25.40;1.00
34201;DHT22;20469;55.638;37.670;2023-06-14T09:40:34;25.30;1.00
34201;DHT22;20469;55.638;37.670;2023-06-14T09:43:05;24.70;1.00
34201;DHT22;20469;55.638;37.670;2023-06-14T09:45:33;24.50;1.00
34201;DHT22;20469;55.638;37.670;2023-06-14T09:48:01;26.10;1.00
34201;DHT22;20469;55.638;37.670;2023-06-14T09:50:34;25.90;1.00
34201;DHT22;20469;55.638;37.670;2023-06-14T09:53:06;25.30;1.00
34201;DHT22;20469;55.638;37.670;2023-06-14T09:55:37;26.30;1.00
34201;DHT22;20469;55.638;37.670;2023-06-14T09:58:07;26.50;1.00
34201;DHT22;20469;55.638;37.670;2023-06-14T10:00:36;26.50;1.00
34201;DHT22;20469;55.638;37.670;2023-06-14T10:03:14;26.50;1.00
34201;DHT22;20469;55.638;37.670;2023-06-14T10:05:43;26.90;1.00
34201;DHT22;20469;55.638;37.670;2023-06-14T10:08:17;27.30;1.00
34201;DHT22;20469;55.638;37.670;2023-06-14T10:10:46;28.00;1.00
34201;DHT22;20469;55.638;37.670;2023-06-14T10:13:14;27.10;1.00
34201;DHT22;20469;55.638;37.670;2023-06-14T10:19:10;26.00;1.00
34201;DHT22;20469;55.638;37.670;2023-06-14T10:21:58;27.00;1.00
34201;DHT22;20469;55.638;37.670;2023-06-14T10:24:33;26.60;1.00
34201;DHT22;20469;55.638;37.670;2023-06-14T10:27:00;27.40;1.00
34201;DHT22;20469;55.638;37.670;2023-06-14T10:29:30;26.90;1.00
34201;DHT22;20469;55.638;37.670;2023-06-14T10:32:00;26.90;1.00
34201;DHT22;20469;55.638;37.670;2023-06-14T10:34:29;26.10;1.00
34201;DHT22;20469;55.638;37.670;2023-06-14T10:37:11;25.80;1.00
34201;DHT22;20469;55.638;37.670;2023-06-14T10:39:40;25.30;1.00
34201;DHT22;20469;55.638;37.670;2023-06-14T10:42:08;25.30;1.00
34201;DHT22;20469;55.638;37.670;2023-06-14T10:44:38;25.60;1.00
34201;DHT22;20469;55.638;37.670;2023-06-14T10:47:27;26.00;1.00
34201;DHT22;20469;55.638;37.670;2023-06-14T10:50:08;27.20;1.00
34201;DHT22;20469;55.638;37.670;2023-06-14T10:52:42;27.20;1.00
34201;DHT22;20469;55.638;37.670;2023-06-14T10:55:17;26.10;1.00
34201;DHT22;20469;55.638;37.670;2023-06-14T10:57:52;26.30;1.00
34201;DHT22;20469;55.638;37.670;2023-06-14T11:00:27;26.10;1.00
34201;DHT22;20469;55.638;37.670;2023-06-14T11:06:22;25.20;1.00
34201;DHT22;20469;55.638;37.670;2023-06-14T11:11:32;27.40;1.00
34201;DHT22;20469;55.638;37.670;2023-06-14T11:14:03;27.20;1.00
34201;DHT22;20469;55.638;37.670;2023-06-14T11:16:31;26.30;1.00
34201;DHT22;20469;55.638;37.670;2023-06-14T11:19:01;26.00;1.00
34201;DHT22;20469;55.638;37.670;2023-06-14T11:21:32;27.20;1.00
34201;DHT22;20469;55.638;37.670;2023-06-14T11:24:00;27.30;1.00
34201;DHT22;20469;55.638;37.670;2023-06-14T11:26:29;26.30;1.00
34201;DHT22;20469;55.638;37.670;2023-06-14T11:28:59;25.80;1.00
34201;DHT22;20469;55.638;37.670;2023-06-14T11:31:28;26.50;1.00
34201;DHT22;20469;55.638;37.670;2023-06-14T11:33:58;27.00;1.00
34201;DHT22;20469;55.638;37.670;2023-06-14T11:36:27;27.50;1.00
34201;DHT22;20469;55.638;37.670;2023-06-14T11:39:02;28.30;1.00
34201;DHT22;20469;55.638;37.670;2023-06-14T11:42:04;27.50;1.00
34201;DHT22;20469;55.638;37.670;2023-06-14T11:44:28;26.80;1.00
34201;DHT22;20469;55.638;37.670;2023-06-14T11:46:56;26.70;1.00
34201;DHT22;20469;55.638;37.670;2023-06-14T11:49:24;26.40;1.00
34201;DHT22;20469;55.638;37.670;2023-06-14T11:51:53;27.50;1.00
34201;DHT22;20469;55.638;37.670;2023-06-14T11:54:20;28.20;1.00
34201;DHT22;20469;55.638;37.670;2023-06-14T11:56:48;28.10;1.00
34201;DHT22;20469;55.638;37.670;2023-06-14T11:59:16;27.10;1.00
34201;DHT22;20469;55.638;37.670;2023-06-14T12:01:43;25.70;1.00
34201;DHT22;20469;55.638;37.670;2023-06-14T12:04:11;26.20;1.00
34201;DHT22;20469;55.638;37.670;2023-06-14T12:06:38;26.80;1.00
34201;DHT22;20469;55.638;37.670;2023-06-14T12:09:07;26.60;1.00
34201;DHT22;20469;55.638;37.670;2023-06-14T12:11:40;26.40;1.00
34201;DHT22;20469;55.638;37.670;2023-06-14T12:14:08;26.70;1.00
34201;DHT22;20469;55.638;37.670;2023-06-14T12:16:39;26.90;1.00
34201;DHT22;20469;55.638;37.670;2023-06-14T12:19:15;27.20;1.00
34201;DHT22;20469;55.638;37.670;2023-06-14T12:21:45;26.90;1.00
34201;DHT22;20469;55.638;37.670;2023-06-14T12:24:16;26.70;1.00
34201;DHT22;20469;55.638;37.670;2023-06-14T12:26:44;26.50;1.00
34201;DHT22;20469;55.638;37.670;2023-06-14T12:29:12;27.50;1.00
34201;DHT22;20469;55.638;37.670;2023-06-14T12:31:40;27.60;1.00
34201;DHT22;20469;55.638;37.670;2023-06-14T12:34:09;27.60;1.00
34201;DHT22;20469;55.638;37.670;2023-06-14T12:36:37;27.80;1.00
34201;DHT22;20469;55.638;37.670;2023-06-14T12:39:12;27.90;1.00
34201;DHT22;20469;55.638;37.670;2023-06-14T12:41:40;27.30;1.00
34201;DHT22;20469;55.638;37.670;2023-06-14T12:44:13;27.40;1.00
34201;DHT22;20469;55.638;37.670;2023-06-14T12:46:42;27.20;1.00
34201;DHT22;20469;55.638;37.670;2023-06-14T12:49:11;28.20;1.00
34201;DHT22;20469;55.638;37.670;2023-06-14T12:51:39;27.90;1.00
34201;DHT22;20469;55.638;37.670;2023-06-14T12:54:07;27.80;1.00
34201;DHT22;20469;55.638;37.670;2023-06-14T12:56:35;27.80;1.00
34201;DHT22;20469;55.638;37.670;2023-06-14T12:59:02;27.90;1.00
34201;DHT22;20469;55.638;37.670;2023-06-14T13:01:29;27.30;1.00
34201;DHT22;20469;55.638;37.670;2023-06-14T13:03:57;26.80;1.00
34201;DHT22;20469;55.638;37.670;2023-06-14T13:06:24;27.00;1.00
34201;DHT22;20469;55.638;37.670;2023-06-14T13:08:52;27.50;1.00
34201;DHT22;20469;55.638;37.670;2023-06-14T13:11:40;26.60;1.00
34201;DHT22;20469;55.638;37.670;2023-06-14T13:14:08;26.70;1.00
34201;DHT22;20469;55.638;37.670;2023-06-14T13:16:51;26.60;1.00
34201;DHT22;20469;55.638;37.670;2023-06-14T13:19:19;26.30;1.00
34201;DHT22;20469;55.638;37.670;2023-06-14T13:21:47;26.50;1.00
34201;DHT22;20469;55.638;37.670;2023-06-14T13:24:14;27.30;1.00
34201;DHT22;20469;55.638;37.670;2023-06-14T13:29:29;26.20;1.00
34201;DHT22;20469;55.638;37.670;2023-06-14T13:31:57;26.60;1.00
34201;DHT22;20469;55.638;37.670;2023-06-14T13:34:25;26.80;1.00
34201;DHT22;20469;55.638;37.670;2023-06-14T13:36:52;26.70;1.00
34201;DHT22;20469;55.638;37.670;2023-06-14T13:39:20;26.20;1.00
34201;DHT22;20469;55.638;37.670;2023-06-14T13:41:48;26.30;1.00
34201;DHT22;20469;55.638;37.670;2023-06-14T13:44:15;26.20;1.00
34201;DHT22;20469;55.638;37.670;2023-06-14T13:46:45;26.40;1.00
34201;DHT22;20469;55.638;37.670;2023-06-14T13:49:13;27.40;1.00
34201;DHT22;20469;55.638;37.670;2023-06-14T13:51:40;27.30;1.00
34201;DHT22;20469;55.638;37.670;2023-06-14T13:54:08;27.20;1.00
34201;DHT22;20469;55.638;37.670;2023-06-14T13:56:35;26.40;1.00
34201;DHT22;20469;55.638;37.670;2023-06-14T14:01:50;27.10;1.00
34201;DHT22;20469;55.638;37.670;2023-06-14T14:04:18;26.90;1.00
34201;DHT22;20469;55.638;37.670;2023-06-14T14:06:45;26.60;1.00
34201;DHT22;20469;55.638;37.670;2023-06-14T14:09:15;26.70;1.00
34201;DHT22;20469;55.638;37.670;2023-06-14T14:11:42;26.20;1.00
34201;DHT22;20469;55.638;37.670;2023-06-14T14:16:56;26.50;1.00
34201;DHT22;20469;55.638;37.670;2023-06-14T14:19:24;28.00;1.00
34201;DHT22;20469;55.638;37.670;2023-06-14T14:21:52;27.80;1.00
34201;DHT22;20469;55.638;37.670;2023-06-14T14:24:21;29.40;1.00
34201;DHT22;20469;55.638;37.670;2023-06-14T14:26:49;29.40;1.00
34201;DHT22;20469;55.638;37.670;2023-06-14T14:29:17;28.20;1.00
34201;DHT22;20469;55.638;37.670;2023-06-14T14:31:44;27.70;1.00
34201;DHT22;20469;55.638;37.670;2023-06-14T14:34:12;27.00;1.00
34201;DHT22;20469;55.638;37.670;2023-06-14T14:36:39;25.80;1.00
34201;DHT22;20469;55.638;37.670;2023-06-14T14:39:09;25.40;1.00
34201;DHT22;20469;55.638;37.670;2023-06-14T14:47:11;25.60;1.00
34201;DHT22;20469;55.638;37.670;2023-06-14T14:52:24;25.70;1.00
34201;DHT22;20469;55.638;37.670;2023-06-14T14:54:53;25.60;1.00
34201;DHT22;20469;55.638;37.670;2023-06-14T14:57:21;25.50;1.00
34201;DHT22;20469;55.638;37.670;2023-06-14T14:59:49;25.50;1.00
34201;DHT22;20469;55.638;37.670;2023-06-14T15:02:16;25.30;1.00
34201;DHT22;20469;55.638;37.670;2023-06-14T15:04:45;25.70;1.00
34201;DHT22;20469;55.638;37.670;2023-06-14T15:07:13;25.80;1.00
34201;DHT22;20469;55.638;37.670;2023-06-14T15:09:40;25.20;1.00
34201;DHT22;20469;55.638;37.670;2023-06-14T15:12:08;25.30;1.00
34201;DHT22;20469;55.638;37.670;2023-06-14T15:14:56;25.40;1.00
34201;DHT22;20469;55.638;37.670;2023-06-14T15:17:24;24.70;1.00
34201;DHT22;20469;55.638;37.670;2023-06-14T15:19:52;24.70;1.00
34201;DHT22;20469;55.638;37.670;2023-06-14T15:22:19;24.80;1.00
34201;DHT22;20469;55.638;37.670;2023-06-14T15:24:47;25.20;1.00
34201;DHT22;20469;55.638;37.670;2023-06-14T15:27:17;25.10;1.00
34201;DHT22;20469;55.638;37.670;2023-06-14T15:29:44;24.80;1.00
34201;DHT22;20469;55.638;37.670;2023-06-14T15:32:15;24.70;1.00
34201;DHT22;20469;55.638;37.670;2023-06-14T15:34:42;25.00;1.00
34201;DHT22;20469;55.638;37.670;2023-06-14T15:37:10;24.90;1.00
34201;DHT22;20469;55.638;37.670;2023-06-14T15:39:56;24.90;1.00
34201;DHT22;20469;55.638;37.670;2023-06-14T15:45:10;24.50;1.00
34201;DHT22;20469;55.638;37.670;2023-06-14T15:47:37;24.20;1.00
34201;DHT22;20469;55.638;37.670;2023-06-14T15:50:06;24.20;1.00
34201;DHT22;20469;55.638;37.670;2023-06-14T15:52:35;24.20;1.00
34201;DHT22;20469;55.638;37.670;2023-06-14T15:55:21;24.50;1.00
34201;DHT22;20469;55.638;37.670;2023-06-14T15:57:48;24.30;1.00
34201;DHT22;20469;55.638;37.670;2023-06-14T16:00:16;24.10;1.00
34201;DHT22;20469;55.638;37.670;2023-06-14T16:02:44;24.00;1.00
34201;DHT22;20469;55.638;37.670;2023-06-14T16:05:13;24.20;1.00
34201;DHT22;20469;55.638;37.670;2023-06-14T16:07:41;24.10;1.00
34201;DHT22;20469;55.638;37.670;2023-06-14T16:10:09;24.20;1.00
34201;DHT22;20469;55.638;37.670;2023-06-14T16:12:36;24.10;1.00
34201;DHT22;20469;55.638;37.670;2023-06-14T16:15:06;24.10;1.00
34201;DHT22;20469;55.638;37.670;2023-06-14T16:17:33;24.20;1.00